Kristina — V7ZT9 — position and weather

sailwx.info

Track history (hours):
 
Tides and Currents Weather Stations Pressure Air Temp Water Temp Dewpoint Dewpoint Depression Visibility Wind Speed Wind Dir Waves Ship Positions

Kristina

Last reported at 2018-Jan-10 08:39 UTC. Time now 2018-Jan-19 08:00 UTC.
Position N 41°42' E 141°44'.
Warning: this ship's position is 8 days out of date.

Length 270 m; draft 11.8 m.

Type: Ship (hazmat cat A). MMSI: 538004913.

Date/timePositionNaut miles runAvg speedWind from/ knotsBaromVisibWave heightAir tempDewpointWater temp
2018-Jan-10 08:39N 41°42' E 141°44'417.3
2018-Jan-10 08:27N 41°42' E 141°39'817.8
2018-Jan-10 08:00N 41°42' E 141°29'816.7
2018-Jan-10 07:31N 41°40' E 141°18'917.1
2018-Jan-10 07:01N 41°39' E 141°06'918.6
2018-Jan-10 06:31N 41°38' E 140°54'917.6
2018-Jan-10 06:00N 41°34' E 140°44'918.5
2018-Jan-10 05:31N 41°29' E 140°33'918.3
2018-Jan-10 05:01N 41°23' E 140°24'917.6
2018-Jan-10 04:31N 41°18' E 140°14'917.2
2018-Jan-10 04:00N 41°13' E 140°05'  
2018-Jan-05 09:09N 31°06' E 122°25'414.1
2018-Jan-05 08:53N 31°06' E 122°20'614.3
2018-Jan-05 08:30N 31°08' E 122°15'714.3
2018-Jan-05 08:00N 31°12' E 122°08'813.3
2018-Jan-05 07:25N 31°15' E 121°59'511.4
2018-Jan-05 07:01N 31°16' E 121°54'17 9.2
2018-Jan-05 05:08N 31°23' E 121°35'1 0.5
2018-Jan-05 03:51N 31°23' E 121°35'0 0.0
2018-Jan-04 06:09N 31°23' E 121°35'0 0.0
2018-Jan-04 06:00N 31°23' E 121°35'0 0.7
2018-Jan-04 05:30N 31°23' E 121°34'1 1.3
2018-Jan-04 04:53N 31°23' E 121°34'1 2.0
2018-Jan-04 04:30N 31°23' E 121°35'5 9.5
2018-Jan-04 04:01N 31°21' E 121°39'510.2
2018-Jan-04 03:29N 31°19' E 121°45'612.8
2018-Jan-04 03:00N 31°16' E 121°52'610.4
2018-Jan-04 02:28N 31°15' E 121°58'511.0
2018-Jan-04 02:00N 31°14' E 122°04'11 8.6
2018-Jan-04 00:44N 31°08' E 122°15'2 5.4
2018-Jan-04 00:23N 31°07' E 122°16'  
2017-Dec-31 15:14N 36°02' E 120°17'4 1.3
2017-Dec-31 12:14N 36°01' E 120°12'0 0.0
2017-Dec-31 11:19N 36°01' E 120°12'0 0.0
2017-Dec-31 10:27N 36°01' E 120°12'0 0.0
2017-Dec-31 09:02N 36°01' E 120°12'0 0.0
2017-Dec-31 08:50N 36°01' E 120°12'  
Track history (hours):
 
Tides and Currents Weather Stations Pressure Air Temp Water Temp Dewpoint Dewpoint Depression Visibility Wind Speed Wind Dir Waves Ship Positions

Kristina

Last reported at 2018-Jan-10 08:39 UTC. Time now 2018-Jan-19 08:00 UTC.
Position N 41°42' E 141°44'.
Warning: this ship's position is 8 days out of date.

Length 270 m; draft 11.8 m.

Type: Ship (hazmat cat A). MMSI: 538004913.

Date/timePositionNaut miles runAvg speedWind from/ knotsBaromVisibWave heightAir tempDewpointWater temp
2018-Jan-10 08:39N 41°42' E 141°44'417.3
2018-Jan-10 08:27N 41°42' E 141°39'817.8
2018-Jan-10 08:00N 41°42' E 141°29'816.7
2018-Jan-10 07:31N 41°40' E 141°18'917.1
2018-Jan-10 07:01N 41°39' E 141°06'918.6
2018-Jan-10 06:31N 41°38' E 140°54'917.6
2018-Jan-10 06:00N 41°34' E 140°44'918.5
2018-Jan-10 05:31N 41°29' E 140°33'918.3
2018-Jan-10 05:01N 41°23' E 140°24'917.6
2018-Jan-10 04:31N 41°18' E 140°14'917.2
2018-Jan-10 04:00N 41°13' E 140°05'  
2018-Jan-05 09:09N 31°06' E 122°25'414.1
2018-Jan-05 08:53N 31°06' E 122°20'614.3
2018-Jan-05 08:30N 31°08' E 122°15'714.3
2018-Jan-05 08:00N 31°12' E 122°08'813.3
2018-Jan-05 07:25N 31°15' E 121°59'511.4
2018-Jan-05 07:01N 31°16' E 121°54'17 9.2
2018-Jan-05 05:08N 31°23' E 121°35'1 0.5
2018-Jan-05 03:51N 31°23' E 121°35'0 0.0
2018-Jan-04 06:09N 31°23' E 121°35'0 0.0
2018-Jan-04 06:00N 31°23' E 121°35'0 0.7
2018-Jan-04 05:30N 31°23' E 121°34'1 1.3
2018-Jan-04 04:53N 31°23' E 121°34'1 2.0
2018-Jan-04 04:30N 31°23' E 121°35'5 9.5
2018-Jan-04 04:01N 31°21' E 121°39'510.2
2018-Jan-04 03:29N 31°19' E 121°45'612.8
2018-Jan-04 03:00N 31°16' E 121°52'610.4
2018-Jan-04 02:28N 31°15' E 121°58'511.0
2018-Jan-04 02:00N 31°14' E 122°04'11 8.6
2018-Jan-04 00:44N 31°08' E 122°15'2 5.4
2018-Jan-04 00:23N 31°07' E 122°16'  
2017-Dec-31 15:14N 36°02' E 120°17'4 1.3
2017-Dec-31 12:14N 36°01' E 120°12'0 0.0
2017-Dec-31 11:19N 36°01' E 120°12'0 0.0
2017-Dec-31 10:27N 36°01' E 120°12'0 0.0
2017-Dec-31 09:02N 36°01' E 120°12'0 0.0
2017-Dec-31 08:50N 36°01' E 120°12'  

Dump ship's entire track history